createdAt,value
2018-12-12T00:01:02.547Z,3.94
2018-12-12T00:03:29.900Z,3.94
2018-12-12T00:05:57.059Z,3.87
2018-12-12T00:08:24.099Z,4.00
2018-12-12T00:10:51.162Z,3.81
2018-12-12T00:13:18.263Z,3.62
2018-12-12T00:15:45.409Z,3.87
2018-12-12T00:18:13.081Z,4.06
2018-12-12T00:20:40.258Z,3.69
2018-12-12T00:23:07.302Z,3.94
2018-12-12T00:25:34.322Z,3.81
2018-12-12T00:28:01.351Z,3.87
2018-12-12T00:30:28.518Z,4.06
2018-12-12T00:32:55.651Z,3.94
2018-12-12T00:35:22.715Z,3.56
2018-12-12T00:37:49.706Z,3.81
2018-12-12T00:40:16.812Z,3.81
2018-12-12T00:42:43.966Z,3.81
2018-12-12T00:45:11.790Z,4.00
2018-12-12T00:47:39.371Z,3.87
2018-12-12T00:50:06.554Z,3.81
2018-12-12T00:52:33.584Z,3.81
2018-12-12T00:57:37.126Z,3.87
2018-12-12T01:00:05.583Z,3.81
2018-12-12T01:02:33.019Z,3.87
2018-12-12T01:05:00.202Z,3.81
2018-12-12T01:07:29.012Z,3.94
2018-12-12T01:09:56.597Z,4.19
2018-12-12T01:12:24.818Z,4.12
2018-12-12T01:14:53.276Z,4.31
2018-12-12T01:17:22.108Z,4.06
2018-12-12T01:19:49.332Z,3.94
2018-12-12T01:22:17.301Z,4.25
2018-12-12T01:24:44.364Z,4.06
2018-12-12T01:27:21.002Z,4.31
2018-12-12T01:29:57.121Z,4.12
2018-12-12T01:32:24.764Z,4.12
2018-12-12T01:34:57.545Z,4.19
2018-12-12T01:39:56.833Z,4.00
2018-12-12T01:42:23.940Z,4.12
2018-12-12T01:47:23.857Z,3.94
2018-12-12T01:49:50.852Z,4.00
2018-12-12T01:52:29.897Z,3.87
2018-12-12T01:55:00.512Z,4.12
2018-12-12T01:57:27.511Z,4.19
2018-12-12T01:59:54.800Z,3.94
2018-12-12T02:02:21.908Z,4.44
2018-12-12T02:04:59.748Z,4.31
2018-12-12T02:07:31.540Z,4.31
2018-12-12T02:09:58.518Z,4.25
2018-12-12T02:12:26.686Z,4.25
2018-12-12T02:14:53.859Z,4.37
2018-12-12T02:17:29.099Z,4.37
2018-12-12T02:19:56.886Z,4.31
2018-12-12T02:22:23.927Z,4.12
2018-12-12T02:24:51.515Z,4.25
2018-12-12T02:27:18.522Z,4.56
2018-12-12T02:29:45.523Z,4.44
2018-12-12T02:32:12.519Z,4.44
2018-12-12T02:34:39.557Z,4.37
2018-12-12T02:37:06.632Z,4.31
2018-12-12T02:39:33.642Z,4.31
2018-12-12T02:42:00.602Z,4.37
2018-12-12T02:44:27.628Z,4.44
2018-12-12T02:46:54.614Z,4.12
2018-12-12T02:49:23.303Z,4.31
2018-12-12T02:51:50.309Z,4.37
2018-12-12T02:54:17.321Z,4.25
2018-12-12T02:56:44.438Z,4.25
2018-12-12T02:59:11.439Z,4.19
2018-12-12T03:01:38.441Z,4.44
2018-12-12T03:04:05.534Z,4.31
2018-12-12T03:06:32.555Z,4.31
2018-12-12T03:09:08.319Z,4.44
2018-12-12T03:11:35.465Z,4.37
2018-12-12T03:14:02.487Z,4.31
2018-12-12T03:16:29.705Z,4.44
2018-12-12T03:18:56.721Z,4.44
2018-12-12T03:21:23.793Z,4.37
2018-12-12T03:23:50.887Z,4.12
2018-12-12T03:26:18.069Z,4.37
2018-12-12T03:28:45.010Z,4.37
2018-12-12T03:31:12.035Z,4.31
2018-12-12T03:33:39.010Z,4.37
2018-12-12T03:36:05.978Z,4.31
2018-12-12T03:38:32.972Z,4.31
2018-12-12T03:40:59.976Z,4.31
2018-12-12T03:43:26.876Z,4.31
2018-12-12T03:45:54.984Z,4.44
2018-12-12T03:48:21.964Z,4.31
2018-12-12T03:50:49.538Z,4.37
2018-12-12T03:53:16.565Z,4.37
2018-12-12T03:55:43.585Z,4.31
2018-12-12T03:58:10.530Z,4.19
2018-12-12T04:00:37.535Z,4.19
2018-12-12T04:03:04.657Z,4.31
2018-12-12T04:05:31.583Z,4.31
2018-12-12T04:07:58.632Z,4.37
2018-12-12T04:10:25.637Z,4.37
2018-12-12T04:12:52.612Z,4.25
2018-12-12T04:15:19.629Z,4.31
2018-12-12T04:17:46.753Z,4.12
2018-12-12T04:20:14.395Z,4.06
2018-12-12T04:22:41.385Z,4.19
2018-12-12T04:25:08.478Z,4.19
2018-12-12T04:27:35.989Z,4.31
2018-12-12T04:30:03.555Z,4.25
2018-12-12T04:32:30.697Z,4.31
2018-12-12T04:34:57.695Z,4.37
2018-12-12T04:37:24.626Z,4.12
2018-12-12T04:39:51.804Z,4.31
2018-12-12T04:42:18.945Z,4.19
2018-12-12T04:44:46.806Z,4.06
2018-12-12T04:47:15.874Z,4.37
2018-12-12T04:49:42.892Z,4.37
2018-12-12T04:52:10.658Z,4.25
2018-12-12T04:54:37.609Z,4.19
2018-12-12T04:57:04.571Z,4.25
2018-12-12T04:59:31.550Z,4.19
2018-12-12T05:01:58.544Z,4.06
2018-12-12T05:04:25.507Z,4.06
2018-12-12T05:06:52.592Z,4.12
2018-12-12T05:09:19.585Z,4.12
2018-12-12T05:11:46.527Z,4.12
2018-12-12T05:14:13.505Z,3.94
2018-12-12T05:16:40.474Z,4.06
2018-12-12T05:19:07.533Z,3.94
2018-12-12T05:21:34.532Z,3.81
2018-12-12T05:24:01.657Z,3.75
2018-12-12T05:26:28.633Z,3.62
2018-12-12T05:28:55.603Z,3.87
2018-12-12T05:31:22.529Z,3.81
2018-12-12T05:33:49.614Z,3.69
2018-12-12T05:36:16.646Z,3.56
2018-12-12T05:38:43.714Z,3.69
2018-12-12T05:41:12.064Z,3.56
2018-12-12T05:43:39.085Z,3.62
2018-12-12T05:46:06.007Z,3.44
2018-12-12T05:48:32.949Z,3.50
2018-12-12T05:50:59.873Z,3.50
2018-12-12T05:53:26.952Z,3.50
2018-12-12T05:55:53.895Z,3.69
2018-12-12T05:58:20.823Z,3.44
2018-12-12T06:00:47.787Z,3.81
2018-12-12T06:03:14.739Z,3.37
2018-12-12T06:05:41.749Z,3.31
2018-12-12T06:08:08.719Z,3.62
2018-12-12T06:10:35.654Z,3.62
2018-12-12T06:13:02.609Z,3.69
2018-12-12T06:15:29.639Z,3.69
2018-12-12T06:17:56.628Z,3.37
2018-12-12T06:20:23.568Z,3.25
2018-12-12T06:22:50.659Z,3.50
2018-12-12T06:25:17.674Z,3.56
2018-12-12T06:27:44.603Z,3.44
2018-12-12T06:30:11.665Z,3.56
2018-12-12T06:32:38.601Z,3.37
2018-12-12T06:35:06.244Z,3.31
2018-12-12T06:37:33.358Z,3.25
2018-12-12T06:40:00.351Z,3.31
2018-12-12T06:42:27.385Z,3.62
2018-12-12T06:44:54.376Z,3.50
2018-12-12T06:47:21.379Z,3.37
2018-12-12T06:49:48.335Z,3.44
2018-12-12T06:52:15.341Z,3.50
2018-12-12T06:54:42.352Z,3.31
2018-12-12T06:57:09.366Z,3.37
2018-12-12T06:59:36.321Z,3.25
2018-12-12T07:02:03.291Z,3.37
2018-12-12T07:04:30.374Z,3.31
2018-12-12T07:06:57.453Z,3.19
2018-12-12T07:09:24.407Z,3.25
2018-12-12T07:11:51.421Z,3.12
2018-12-12T07:14:19.606Z,3.25
2018-12-12T07:16:46.608Z,3.31
2018-12-12T07:19:13.558Z,3.25
2018-12-12T07:21:41.203Z,3.25
2018-12-12T07:24:08.932Z,3.25
2018-12-12T07:26:36.056Z,3.25
2018-12-12T07:29:03.121Z,3.31
2018-12-12T07:31:30.241Z,3.19
2018-12-12T07:34:00.987Z,3.19
2018-12-12T07:36:24.315Z,3.25
2018-12-12T07:43:46.248Z,3.25
2018-12-12T07:46:13.335Z,3.37
2018-12-12T07:48:40.362Z,3.06
2018-12-12T07:51:07.594Z,3.37
2018-12-12T07:53:34.562Z,3.37
2018-12-12T07:56:01.692Z,3.37
2018-12-12T07:58:28.686Z,3.56
2018-12-12T08:00:55.758Z,3.31
2018-12-12T08:03:22.713Z,3.06
2018-12-12T08:05:49.782Z,3.50
2018-12-12T08:08:16.802Z,3.37
2018-12-12T08:10:44.356Z,3.44
2018-12-12T08:13:11.453Z,3.44
2018-12-12T08:15:44.295Z,3.19
2018-12-12T08:18:11.454Z,3.12
2018-12-12T08:20:38.417Z,3.31
2018-12-12T08:23:05.391Z,3.25
2018-12-12T08:25:32.485Z,3.31
2018-12-12T08:27:59.485Z,3.25
2018-12-12T08:30:26.461Z,3.19
2018-12-12T08:32:54.069Z,3.37
2018-12-12T08:35:24.161Z,3.12
2018-12-12T08:37:51.474Z,3.25
2018-12-12T08:40:19.079Z,3.37
2018-12-12T08:42:46.336Z,3.50
2018-12-12T08:45:13.642Z,3.50
2018-12-12T08:47:40.788Z,3.31
2018-12-12T08:50:07.986Z,3.19
2018-12-12T08:52:37.359Z,3.62
2018-12-12T08:55:04.573Z,3.44
2018-12-12T08:57:31.760Z,3.75
2018-12-12T08:59:58.745Z,3.75
2018-12-12T09:02:25.683Z,3.75
2018-12-12T09:04:52.603Z,3.69
2018-12-12T09:07:19.639Z,3.50
2018-12-12T09:09:46.615Z,3.81
2018-12-12T09:12:13.731Z,3.62
2018-12-12T09:14:40.794Z,3.56
2018-12-12T09:17:09.741Z,3.94
2018-12-12T09:19:35.450Z,3.94
2018-12-12T09:22:02.614Z,3.75
2018-12-12T09:24:30.095Z,3.81
2018-12-12T09:26:57.033Z,3.94
2018-12-12T09:29:24.204Z,4.00
2018-12-12T09:31:51.233Z,3.94
2018-12-12T09:34:18.218Z,3.94
2018-12-12T09:36:45.206Z,4.06
2018-12-12T09:39:12.218Z,4.12
2018-12-12T09:41:39.218Z,3.87
2018-12-12T09:44:06.212Z,4.06
2018-12-12T09:46:44.690Z,4.12
2018-12-12T09:49:11.878Z,3.94
2018-12-12T09:51:38.822Z,4.12
2018-12-12T09:54:05.963Z,3.94
2018-12-12T09:56:33.009Z,4.19
2018-12-12T09:59:00.143Z,4.44
2018-12-12T10:01:27.167Z,4.25
2018-12-12T10:03:54.282Z,4.25
2018-12-12T10:06:23.528Z,4.44
2018-12-12T10:08:50.580Z,4.44
2018-12-12T10:11:18.277Z,4.31
2018-12-12T10:13:45.328Z,4.44
2018-12-12T10:16:12.414Z,4.62
2018-12-12T10:18:40.604Z,4.44
2018-12-12T10:21:13.285Z,4.50
2018-12-12T10:23:40.470Z,4.31
2018-12-12T10:26:07.484Z,4.44
2018-12-12T10:28:34.425Z,4.56
2018-12-12T10:31:01.425Z,4.56
2018-12-12T10:33:28.494Z,4.44
2018-12-12T10:35:55.513Z,4.62
2018-12-12T10:38:23.404Z,4.44
2018-12-12T10:40:50.357Z,4.62
2018-12-12T10:43:17.360Z,4.75
2018-12-12T10:45:44.448Z,4.69
2018-12-12T10:48:11.492Z,4.69
2018-12-12T10:50:38.469Z,4.75
2018-12-12T10:53:07.400Z,4.81
2018-12-12T10:55:34.457Z,4.56
2018-12-12T10:58:01.439Z,4.87
2018-12-12T11:00:28.490Z,4.75
2018-12-12T11:03:01.269Z,4.75
2018-12-12T11:05:28.335Z,4.81
2018-12-12T11:07:55.375Z,4.69
2018-12-12T11:10:22.560Z,4.94
2018-12-12T11:12:49.600Z,4.81
2018-12-12T11:15:16.602Z,5.00
2018-12-12T11:17:43.541Z,4.87
2018-12-12T11:20:10.613Z,4.87
2018-12-12T11:22:37.568Z,5.06
2018-12-12T11:25:05.403Z,4.81
2018-12-12T11:27:33.079Z,5.00
2018-12-12T11:30:00.098Z,4.81
2018-12-12T11:32:27.139Z,5.00
2018-12-12T11:34:54.267Z,4.69
2018-12-12T11:37:21.392Z,5.00
2018-12-12T11:39:48.649Z,5.19
2018-12-12T11:42:17.345Z,5.06
2018-12-12T11:44:45.094Z,4.94
2018-12-12T11:47:37.227Z,5.06
2018-12-12T11:50:06.169Z,4.81
2018-12-12T11:52:33.385Z,5.12
2018-12-12T11:55:00.403Z,5.06
2018-12-12T11:57:27.518Z,4.94
2018-12-12T11:59:54.517Z,5.00
2018-12-12T12:02:22.911Z,5.25
2018-12-12T12:04:50.949Z,5.06
2018-12-12T12:07:18.858Z,5.25
2018-12-12T12:09:45.930Z,5.00
2018-12-12T12:12:16.486Z,5.06
2018-12-12T12:14:44.460Z,4.94
2018-12-12T12:17:11.466Z,5.06
2018-12-12T12:19:40.203Z,4.81
2018-12-12T12:22:07.211Z,4.94
2018-12-12T12:24:34.276Z,5.12
2018-12-12T12:27:01.923Z,4.81
2018-12-12T12:29:29.065Z,5.00
2018-12-12T12:31:58.320Z,5.06
2018-12-12T12:34:25.294Z,5.06
2018-12-12T12:36:52.306Z,5.25
2018-12-12T12:39:19.351Z,5.25
2018-12-12T12:41:46.495Z,5.00
2018-12-12T12:44:14.561Z,5.06
2018-12-12T12:46:41.702Z,5.06
2018-12-12T12:49:08.858Z,5.25
2018-12-12T12:51:39.206Z,4.94
2018-12-12T12:54:06.431Z,4.75
2018-12-12T12:56:33.532Z,5.31
2018-12-12T12:59:00.942Z,5.25
2018-12-12T13:01:29.268Z,5.37
2018-12-12T13:03:57.928Z,5.37
2018-12-12T13:06:29.082Z,5.37
2018-12-12T13:08:58.001Z,5.12
2018-12-12T13:11:25.857Z,5.19
2018-12-12T13:13:52.993Z,5.06
2018-12-12T13:16:20.229Z,5.00
2018-12-12T13:18:48.726Z,4.87
2018-12-12T13:21:16.563Z,4.87
2018-12-12T13:23:43.617Z,4.69
2018-12-12T13:26:10.574Z,4.62
2018-12-12T13:28:37.607Z,4.87
2018-12-12T13:31:05.397Z,4.69
2018-12-12T13:33:33.816Z,4.69
2018-12-12T13:36:01.418Z,5.12
2018-12-12T13:38:28.446Z,4.94
2018-12-12T13:40:55.397Z,4.87
2018-12-12T13:43:22.348Z,4.94
2018-12-12T13:45:49.333Z,4.81
2018-12-12T13:48:16.306Z,4.94
2018-12-12T13:50:43.348Z,5.00
2018-12-12T13:53:10.357Z,4.75
2018-12-12T13:55:37.537Z,4.56
2018-12-12T13:58:04.937Z,4.69
2018-12-12T14:00:31.989Z,5.00
2018-12-12T14:02:58.932Z,5.25
2018-12-12T14:05:25.958Z,4.69
2018-12-12T14:07:52.926Z,4.87
2018-12-12T14:10:20.081Z,4.94
2018-12-12T14:12:47.197Z,4.81
2018-12-12T14:15:14.150Z,4.62
2018-12-12T14:17:41.272Z,4.87
2018-12-12T14:20:08.357Z,4.62
2018-12-12T14:22:35.346Z,4.69
2018-12-12T14:25:04.584Z,4.75
2018-12-12T14:27:31.663Z,4.81
2018-12-12T14:29:58.681Z,4.75
2018-12-12T14:32:25.662Z,4.62
2018-12-12T14:34:52.647Z,4.62
2018-12-12T14:37:19.621Z,4.44
2018-12-12T14:39:46.636Z,4.37
2018-12-12T14:42:13.614Z,4.31
2018-12-12T14:44:40.713Z,4.37
2018-12-12T14:47:07.787Z,4.44
2018-12-12T14:49:34.689Z,4.37
2018-12-12T14:52:01.683Z,4.44
2018-12-12T14:54:28.641Z,4.31
2018-12-12T14:56:55.652Z,4.31
2018-12-12T14:59:22.717Z,3.87
2018-12-12T15:01:50.332Z,4.00
2018-12-12T15:04:17.941Z,4.00
2018-12-12T15:06:45.612Z,4.37
2018-12-12T15:09:12.661Z,4.37
2018-12-12T15:11:39.710Z,4.44
2018-12-12T15:14:06.839Z,4.31
2018-12-12T15:16:41.544Z,4.31
2018-12-12T15:19:08.569Z,4.31
2018-12-12T15:21:35.542Z,4.19
2018-12-12T15:24:02.504Z,4.19
2018-12-12T15:26:32.045Z,4.44
2018-12-12T15:28:59.827Z,4.12
2018-12-12T15:31:26.802Z,4.00
2018-12-12T15:33:54.189Z,4.19
2018-12-12T15:36:21.135Z,4.44
2018-12-12T15:38:48.245Z,4.19
2018-12-12T15:41:15.269Z,4.31
2018-12-12T15:43:42.299Z,4.12
2018-12-12T15:46:09.320Z,4.19
2018-12-12T15:48:36.935Z,3.94
2018-12-12T15:51:03.955Z,4.06
2018-12-12T15:53:31.206Z,4.00
2018-12-12T15:55:58.970Z,3.81
2018-12-12T15:58:25.917Z,4.06
2018-12-12T16:00:52.929Z,4.12
2018-12-12T16:03:19.975Z,4.00
2018-12-12T16:05:46.956Z,4.06
2018-12-12T16:08:14.093Z,3.87
2018-12-12T16:10:40.985Z,3.87
2018-12-12T16:13:07.911Z,3.62
2018-12-12T16:15:35.370Z,3.87
2018-12-12T16:18:02.279Z,3.81
2018-12-12T16:20:29.298Z,3.75
2018-12-12T16:22:56.543Z,3.94
2018-12-12T16:25:23.666Z,4.12
2018-12-12T16:27:52.320Z,4.44
2018-12-12T16:30:19.158Z,4.25
2018-12-12T16:32:46.436Z,4.19
2018-12-12T16:35:13.705Z,4.12
2018-12-12T16:37:41.856Z,4.25
2018-12-12T16:40:09.029Z,4.00
2018-12-12T16:43:00.463Z,3.94
2018-12-12T16:45:27.930Z,4.06
2018-12-12T16:47:55.038Z,3.75
2018-12-12T16:50:22.235Z,4.06
2018-12-12T16:52:49.400Z,4.06
2018-12-12T16:55:16.687Z,4.06
2018-12-12T16:57:43.875Z,4.12
2018-12-12T17:00:11.055Z,4.12
2018-12-12T17:02:38.345Z,4.12
2018-12-12T17:05:05.544Z,3.56
2018-12-12T17:07:32.821Z,3.75
2018-12-12T17:10:00.042Z,3.56
2018-12-12T17:12:27.198Z,3.75
2018-12-12T17:14:54.579Z,3.81
2018-12-12T17:17:21.831Z,3.50
2018-12-12T17:19:49.018Z,3.56
2018-12-12T17:22:17.706Z,3.62
2018-12-12T17:24:45.890Z,3.62
2018-12-12T17:27:27.081Z,3.62
2018-12-12T17:29:54.415Z,3.81
2018-12-12T17:32:27.004Z,3.81
2018-12-12T17:58:28.475Z,3.37
2018-12-12T18:00:55.637Z,3.25
2018-12-12T18:40:40.483Z,3.44
2018-12-12T18:43:10.670Z,3.25
2018-12-12T18:45:41.451Z,3.62
2018-12-12T18:49:52.088Z,3.31
2018-12-12T18:52:29.673Z,3.56
2018-12-12T18:55:35.701Z,3.62
2018-12-12T19:00:48.281Z,3.75
2018-12-12T19:03:23.126Z,3.62
2018-12-12T19:05:50.341Z,3.62
2018-12-12T19:08:17.607Z,3.87
2018-12-12T19:16:30.913Z,4.12
2018-12-12T19:18:58.252Z,3.62
2018-12-12T19:21:26.473Z,3.62
2018-12-12T19:23:53.968Z,3.62
2018-12-12T19:26:21.303Z,3.37
2018-12-12T19:28:48.562Z,3.31
2018-12-12T19:31:15.736Z,3.50
2018-12-12T19:33:42.985Z,3.62
2018-12-12T19:36:11.377Z,3.44
2018-12-12T19:38:38.699Z,3.37
2018-12-12T19:41:06.094Z,3.69
2018-12-12T19:43:33.300Z,3.31
2018-12-12T19:46:01.275Z,3.25
2018-12-12T19:48:28.690Z,3.50
2018-12-12T19:50:56.111Z,3.87
2018-12-12T19:53:23.506Z,3.50
2018-12-12T19:55:50.817Z,3.56
2018-12-12T19:58:18.226Z,3.31
2018-12-12T20:00:45.898Z,3.75
2018-12-12T20:03:14.228Z,3.87
2018-12-12T20:05:41.812Z,3.75
2018-12-12T20:08:14.665Z,3.44
2018-12-12T20:10:42.511Z,3.50
2018-12-12T20:13:11.486Z,3.50
2018-12-12T20:15:48.516Z,3.37
2018-12-12T20:18:17.938Z,3.25
2018-12-12T20:20:45.287Z,3.37
2018-12-12T20:23:12.574Z,3.50
2018-12-12T20:25:40.067Z,3.62
2018-12-12T20:28:07.306Z,3.37
2018-12-12T20:30:35.445Z,3.50
2018-12-12T20:33:03.262Z,3.44
2018-12-12T20:35:31.054Z,3.50
2018-12-12T20:37:58.285Z,3.37
2018-12-12T20:40:25.766Z,3.50
2018-12-12T20:42:53.349Z,3.62
2018-12-12T20:45:21.559Z,3.37
2018-12-12T20:47:55.285Z,3.12
2018-12-12T20:50:23.843Z,3.31
2018-12-12T20:52:55.576Z,3.44
2018-12-12T20:55:27.343Z,3.31
2018-12-12T20:57:57.153Z,3.62
2018-12-12T21:00:24.626Z,3.37
2018-12-12T21:02:55.577Z,3.37
2018-12-12T21:05:22.803Z,3.81
2018-12-12T21:07:56.096Z,3.81
2018-12-12T21:10:24.221Z,4.00
2018-12-12T21:12:51.393Z,3.25
2018-12-12T21:15:18.470Z,3.25
2018-12-12T21:17:47.644Z,3.87
2018-12-12T21:20:15.569Z,3.44
2018-12-12T21:22:42.664Z,3.31
2018-12-12T21:25:10.401Z,3.44
2018-12-12T21:27:37.522Z,3.25
2018-12-12T21:30:04.779Z,3.56
2018-12-12T21:32:34.781Z,3.56
2018-12-12T21:35:01.914Z,3.44
2018-12-12T21:37:29.042Z,3.69
2018-12-12T21:40:03.042Z,3.56
2018-12-12T21:42:31.396Z,3.62
2018-12-12T21:44:59.609Z,3.37
2018-12-12T21:47:26.669Z,3.44
2018-12-12T21:49:54.679Z,3.44
2018-12-12T21:52:21.672Z,3.25
2018-12-12T21:54:48.718Z,3.62
2018-12-12T21:57:49.935Z,3.62
2018-12-12T22:00:17.917Z,3.56
2018-12-12T22:02:45.182Z,3.44
2018-12-12T22:05:12.643Z,3.44
2018-12-12T22:07:41.929Z,3.31
2018-12-12T22:10:11.851Z,3.50
2018-12-12T22:12:39.802Z,3.37
2018-12-12T22:18:09.709Z,3.56
2018-12-12T22:20:42.800Z,3.81
2018-12-12T22:23:11.765Z,3.44
2018-12-12T22:25:39.700Z,3.31
2018-12-12T22:28:18.004Z,3.56
2018-12-12T22:31:17.112Z,3.62
2018-12-12T22:37:17.924Z,3.37
2018-12-12T22:40:06.018Z,3.69
2018-12-12T22:42:40.602Z,3.62
2018-12-12T22:45:10.204Z,3.44
2018-12-12T23:31:57.997Z,3.75
2018-12-12T23:34:28.272Z,3.69
2018-12-12T23:37:01.838Z,3.62
2018-12-12T23:39:33.279Z,3.69
2018-12-12T23:42:08.018Z,3.75
